Time;durP1;ratioP1;P1;durP2;ratioP2;P2;SDS_P1;SDS_P2;PMS_P1;PMS_P2;Temp;Humidity;BMP_temperature;BMP_pressure;BME280_temperature;BME280_humidity;BME280_pressure;Samples;Min_cycle;Max_cycle;Signal;HPM_P1;HPM_P2
2022/12/24 00:00:38;;;;;;;29.00;17.40;;;10.60;99.90;;;;;;5069591;28;20198;-77
2022/12/24 00:03:04;;;;;;;33.23;17.50;;;10.60;99.90;;;;;;5083133;28;20566;-77
2022/12/24 00:05:30;;;;;;;36.33;18.13;;;10.60;99.90;;;;;;5079453;28;20191;-77
2022/12/24 00:07:57;;;;;;;33.23;18.00;;;10.60;99.90;;;;;;5073162;28;20202;-77
2022/12/24 00:10:23;;;;;;;33.43;18.93;;;10.60;99.90;;;;;;5066848;28;20364;-77
2022/12/24 00:12:49;;;;;;;29.63;17.23;;;10.60;99.90;;;;;;5096681;28;20298;-77
2022/12/24 00:15:16;;;;;;;33.03;17.13;;;10.70;99.90;;;;;;5096647;28;20773;-77
2022/12/24 00:17:42;;;;;;;33.40;18.53;;;10.70;99.90;;;;;;5065187;28;20214;-77
2022/12/24 00:20:09;;;;;;;32.03;17.53;;;10.70;99.90;;;;;;5068428;28;20547;-77
2022/12/24 00:22:36;;;;;;;34.53;18.30;;;10.70;99.90;;;;;;5068767;28;20202;-77
2022/12/24 00:25:02;;;;;;;34.53;18.10;;;10.70;99.90;;;;;;5053581;28;20240;-77
2022/12/24 00:27:29;;;;;;;29.87;17.67;;;10.70;99.90;;;;;;5074869;28;20213;-77
2022/12/24 00:29:56;;;;;;;34.13;18.13;;;10.70;99.90;;;;;;5052378;28;20227;-77
2022/12/24 00:32:22;;;;;;;39.87;18.20;;;10.70;99.90;;;;;;5082354;28;20178;-77
2022/12/24 00:34:49;;;;;;;34.20;18.57;;;10.60;99.90;;;;;;5066657;28;20206;-77
2022/12/24 00:37:15;;;;;;;29.47;17.00;;;10.60;99.90;;;;;;5062868;28;20213;-77
2022/12/24 00:39:42;;;;;;;31.70;18.13;;;10.60;99.90;;;;;;5056265;28;20271;-77
2022/12/24 00:42:08;;;;;;;27.13;16.80;;;10.60;99.90;;;;;;5066822;28;20187;-77
2022/12/24 00:44:34;;;;;;;28.17;15.97;;;10.60;99.90;;;;;;5049009;28;20194;-77
2022/12/24 00:47:01;;;;;;;27.83;17.63;;;10.60;99.90;;;;;;5068355;28;20407;-77
2022/12/24 00:49:28;;;;;;;33.13;17.83;;;10.50;99.90;;;;;;5051431;28;20230;-77
2022/12/24 00:51:55;;;;;;;44.87;16.67;;;10.50;99.90;;;;;;5066221;28;20198;-77
2022/12/24 00:54:21;;;;;;;35.67;17.97;;;10.50;99.90;;;;;;5071671;28;20672;-77
2022/12/24 00:56:48;;;;;;;27.03;17.17;;;10.50;99.90;;;;;;5069639;28;20279;-77
2022/12/24 00:59:15;;;;;;;32.50;18.43;;;10.60;99.90;;;;;;5071296;28;20395;-77
2022/12/24 01:01:41;;;;;;;33.13;17.80;;;10.60;99.90;;;;;;5073685;28;20186;-77
2022/12/24 01:06:55;;;;;;;27.07;16.93;;;10.60;99.90;;;;;;5058963;28;20215;-78
2022/12/24 01:09:21;;;;;;;35.37;18.53;;;10.60;99.90;;;;;;5040087;28;20214;-77
2022/12/24 01:11:47;;;;;;;28.07;17.67;;;10.60;99.90;;;;;;5070452;28;20195;-78
2022/12/24 01:14:16;;;;;;;38.20;19.70;;;10.60;99.90;;;;;;5067196;28;20190;-77
2022/12/24 01:16:43;;;;;;;31.17;17.63;;;10.60;99.90;;;;;;5058754;28;20551;-77
2022/12/24 01:19:10;;;;;;;43.10;18.87;;;10.60;99.90;;;;;;5065538;28;20270;-77
2022/12/24 01:21:36;;;;;;;29.70;18.27;;;10.60;99.90;;;;;;5056989;28;20521;-77
2022/12/24 01:24:03;;;;;;;30.47;17.63;;;10.60;99.90;;;;;;5066271;28;20205;-77
2022/12/24 01:26:29;;;;;;;25.83;17.23;;;10.60;99.90;;;;;;5085314;28;20236;-77
2022/12/24 01:28:56;;;;;;;37.27;17.93;;;10.60;99.90;;;;;;5066311;28;20341;-77
2022/12/24 01:31:22;;;;;;;27.37;16.83;;;10.60;99.90;;;;;;5046518;28;20226;-77
2022/12/24 01:33:49;;;;;;;34.87;17.23;;;10.50;99.90;;;;;;5067562;28;20195;-77
2022/12/24 01:36:15;;;;;;;35.57;19.03;;;10.60;99.90;;;;;;5052955;28;20190;-77
2022/12/24 01:38:42;;;;;;;28.70;17.60;;;10.50;99.90;;;;;;5049301;28;20192;-77
2022/12/24 01:44:32;;;;;;;35.17;18.07;;;10.50;99.90;;;;;;5079752;28;20599;-77
2022/12/24 01:47:25;;;;;;;43.43;18.77;;;10.40;99.90;;;;;;5070369;28;20242;-77
2022/12/24 01:50:08;;;;;;;28.57;15.73;;;10.40;99.90;;;;;;5044836;28;20651;-77
2022/12/24 01:52:36;;;;;;;30.50;17.77;;;10.40;99.90;;;;;;5078025;28;20182;-77
2022/12/24 01:55:16;;;;;;;32.50;17.20;;;10.30;99.90;;;;;;5072343;28;20194;-77
2022/12/24 01:57:52;;;;;;;31.40;17.73;;;10.30;99.90;;;;;;5056287;28;20227;-78
2022/12/24 02:00:18;;;;;;;30.87;17.23;;;10.30;99.90;;;;;;5095101;28;20194;-77
2022/12/24 02:02:49;;;;;;;35.87;18.00;;;10.30;99.90;;;;;;5089236;28;20277;-77
2022/12/24 02:05:46;;;;;;;29.17;17.13;;;10.30;99.90;;;;;;5039061;28;20183;-77
2022/12/24 02:08:16;;;;;;;44.23;17.03;;;10.30;99.90;;;;;;5059723;28;20667;-77
2022/12/24 02:10:43;;;;;;;34.80;17.17;;;10.30;99.90;;;;;;5052344;28;20215;-77
2022/12/24 02:13:10;;;;;;;29.50;16.90;;;10.20;99.90;;;;;;5068775;28;20191;-77
2022/12/24 02:16:06;;;;;;;30.40;17.17;;;10.20;99.90;;;;;;5072186;28;20544;-78
2022/12/24 02:19:28;;;;;;;29.43;16.50;;;10.20;99.90;;;;;;5062910;28;20195;-77
2022/12/24 02:22:31;;;;;;;31.20;17.27;;;10.10;99.90;;;;;;5067204;28;20187;-77
2022/12/24 02:25:28;;;;;;;34.73;17.93;;;10.10;99.90;;;;;;5064365;28;20205;-77
2022/12/24 02:28:08;;;;;;;28.83;17.37;;;10.10;99.90;;;;;;5050822;28;20194;-77
2022/12/24 02:31:21;;;;;;;32.93;17.13;;;10.10;99.90;;;;;;5065115;28;20629;-77
2022/12/24 02:34:06;;;;;;;32.23;16.63;;;10.10;99.90;;;;;;5050852;28;20281;-78
2022/12/24 02:36:47;;;;;;;32.30;17.27;;;10.00;99.90;;;;;;5067138;28;20191;-79
2022/12/24 02:39:26;;;;;;;31.20;18.03;;;10.00;99.90;;;;;;5057898;28;20186;-78
2022/12/24 02:42:06;;;;;;;28.90;17.07;;;10.00;99.90;;;;;;5077898;28;20200;-78
2022/12/24 02:44:54;;;;;;;42.23;18.50;;;10.00;99.90;;;;;;5072766;28;20186;-79
2022/12/24 02:47:26;;;;;;;32.90;17.40;;;9.90;99.90;;;;;;5064199;28;20277;-78
2022/12/24 02:49:53;;;;;;;29.13;18.47;;;9.90;99.90;;;;;;5082484;28;20218;-78
2022/12/24 02:52:40;;;;;;;37.90;18.47;;;9.90;99.90;;;;;;5079805;28;20239;-79
2022/12/24 02:55:10;;;;;;;30.10;17.77;;;9.90;99.90;;;;;;5053764;28;20344;-78
2022/12/24 02:58:28;;;;;;;32.23;17.50;;;9.90;99.90;;;;;;5063356;28;20884;-78
2022/12/24 03:01:30;;;;;;;27.57;17.53;;;9.90;99.90;;;;;;5072371;28;20197;-78
2022/12/24 03:04:38;;;;;;;30.97;18.13;;;9.90;99.90;;;;;;5048949;28;20200;-78
2022/12/24 03:07:59;;;;;;;29.93;17.90;;;9.90;99.90;;;;;;5071360;28;20234;-78
2022/12/24 03:11:09;;;;;;;29.63;18.60;;;9.90;99.90;;;;;;5031113;28;20256;-79
2022/12/24 03:13:36;;;;;;;29.43;18.43;;;9.90;99.90;;;;;;5067100;28;20213;-78
2022/12/24 03:16:13;;;;;;;29.63;17.93;;;9.90;99.90;;;;;;5088996;28;20651;-78
2022/12/24 03:18:46;;;;;;;34.83;18.83;;;9.90;99.90;;;;;;5075537;28;20280;-79
2022/12/24 03:21:27;;;;;;;34.97;19.03;;;9.80;99.90;;;;;;5075328;28;20216;-78
2022/12/24 03:23:55;;;;;;;30.00;18.57;;;9.80;99.90;;;;;;5072491;28;20293;-79
2022/12/24 03:26:23;;;;;;;30.73;18.10;;;9.80;99.90;;;;;;5066087;28;20189;-78
2022/12/24 03:28:50;;;;;;;34.97;18.67;;;9.80;99.90;;;;;;5060015;28;20192;-78
2022/12/24 03:31:17;;;;;;;26.67;17.67;;;9.70;99.90;;;;;;5062207;28;20214;-78
2022/12/24 03:33:45;;;;;;;27.53;18.27;;;9.70;99.90;;;;;;5069059;28;20198;-78
2022/12/24 03:36:14;;;;;;;27.37;18.13;;;9.60;99.90;;;;;;5060578;28;20195;-79
2022/12/24 03:38:40;;;;;;;30.10;17.97;;;9.60;99.90;;;;;;5079740;28;20212;-78
2022/12/24 03:41:07;;;;;;;25.93;17.97;;;9.60;99.90;;;;;;5074801;28;20191;-79
2022/12/24 03:43:34;;;;;;;28.93;18.70;;;9.70;99.90;;;;;;5098975;28;20289;-78
2022/12/24 03:46:08;;;;;;;26.37;18.40;;;9.70;99.90;;;;;;5069837;28;20190;-78
2022/12/24 03:48:35;;;;;;;27.97;18.50;;;9.60;99.90;;;;;;5057261;28;20289;-78
2022/12/24 03:51:03;;;;;;;31.03;17.63;;;9.60;99.90;;;;;;5070201;28;20226;-78
2022/12/24 03:53:30;;;;;;;25.90;18.10;;;9.60;99.90;;;;;;5058453;28;20194;-78
2022/12/24 03:55:56;;;;;;;32.27;17.87;;;9.60;99.90;;;;;;5063034;28;20243;-78
2022/12/24 03:58:24;;;;;;;29.77;18.30;;;9.60;99.90;;;;;;5064295;28;20187;-78
2022/12/24 04:00:53;;;;;;;30.30;17.93;;;9.60;99.90;;;;;;5072336;28;20231;-78
2022/12/24 04:03:19;;;;;;;31.33;18.67;;;9.60;99.90;;;;;;5069957;28;21306;-79
2022/12/24 04:05:47;;;;;;;36.37;18.13;;;9.60;99.90;;;;;;5078649;28;20203;-79
2022/12/24 04:08:14;;;;;;;29.40;18.93;;;9.60;99.90;;;;;;5064643;28;20197;-78
2022/12/24 04:10:41;;;;;;;30.67;16.53;;;9.60;99.90;;;;;;5080638;28;20223;-78
2022/12/24 04:13:08;;;;;;;29.87;18.70;;;9.60;99.90;;;;;;5053378;28;20198;-78
2022/12/24 04:15:34;;;;;;;30.63;17.47;;;9.50;99.90;;;;;;5068080;28;20199;-78
2022/12/24 04:18:02;;;;;;;31.43;17.80;;;9.50;99.90;;;;;;5057992;28;20191;-78
2022/12/24 04:20:29;;;;;;;33.20;18.60;;;9.50;99.90;;;;;;5072413;28;20192;-78
2022/12/24 04:22:56;;;;;;;27.07;17.67;;;9.60;99.90;;;;;;5074307;28;20470;-79
2022/12/24 04:25:23;;;;;;;27.73;17.57;;;9.60;99.90;;;;;;5076176;28;20218;-78
2022/12/24 04:27:49;;;;;;;28.53;18.03;;;9.60;99.90;;;;;;5074188;28;20281;-78
2022/12/24 04:30:15;;;;;;;28.27;17.20;;;9.60;99.90;;;;;;5075721;28;20767;-78
2022/12/24 04:32:42;;;;;;;27.67;18.07;;;9.60;99.90;;;;;;5046960;28;20281;-78
2022/12/24 04:35:09;;;;;;;27.43;16.93;;;9.60;99.90;;;;;;5070543;28;20666;-78
2022/12/24 04:37:35;;;;;;;26.37;16.17;;;9.60;99.90;;;;;;5068205;28;20217;-78
2022/12/24 04:40:02;;;;;;;25.03;16.67;;;9.60;99.90;;;;;;5067676;28;20258;-78
2022/12/24 04:42:29;;;;;;;21.67;15.53;;;9.60;99.90;;;;;;5069800;28;20191;-78
2022/12/24 04:44:56;;;;;;;22.20;13.63;;;9.60;99.90;;;;;;5053881;28;20624;-78
2022/12/24 04:47:22;;;;;;;20.43;14.03;;;9.60;99.90;;;;;;5061226;28;20183;-78
2022/12/24 04:49:49;;;;;;;17.73;14.43;;;9.60;99.90;;;;;;5055256;28;20575;-78
2022/12/24 04:52:16;;;;;;;19.20;14.40;;;9.60;99.90;;;;;;5080543;28;20211;-78
2022/12/24 04:54:42;;;;;;;17.67;14.50;;;9.60;99.90;;;;;;5048402;28;20194;-78
2022/12/24 04:57:08;;;;;;;19.60;13.57;;;9.60;99.90;;;;;;5070100;28;20190;-78
2022/12/24 04:59:35;;;;;;;22.03;14.97;;;9.60;99.90;;;;;;5081873;28;20219;-78
2022/12/24 05:02:03;;;;;;;18.60;14.27;;;9.60;99.90;;;;;;5070521;28;20645;-78
2022/12/24 05:04:30;;;;;;;22.87;14.73;;;9.50;99.90;;;;;;5072196;28;20230;-78
2022/12/24 05:06:57;;;;;;;20.30;14.87;;;9.50;99.90;;;;;;5068877;28;20191;-78
2022/12/24 05:09:23;;;;;;;18.27;14.90;;;9.60;99.90;;;;;;5074034;28;20190;-78
2022/12/24 05:11:49;;;;;;;20.07;15.13;;;9.60;99.90;;;;;;5060360;28;20194;-79
2022/12/24 05:14:18;;;;;;;22.97;14.57;;;9.60;99.90;;;;;;5074852;28;20187;-78
2022/12/24 05:16:44;;;;;;;19.47;15.90;;;9.70;99.90;;;;;;5058529;28;20691;-79
2022/12/24 05:19:10;;;;;;;22.60;16.07;;;9.70;99.90;;;;;;5068044;28;20256;-79
2022/12/24 05:21:36;;;;;;;21.07;16.37;;;9.70;99.90;;;;;;5072535;28;20198;-79
2022/12/24 05:26:57;;;;;;;24.10;18.53;;;9.80;99.90;;;;;;5089163;28;20827;-78
2022/12/24 05:29:24;;;;;;;29.33;17.70;;;9.80;99.90;;;;;;5059681;28;20262;-78
2022/12/24 05:31:53;;;;;;;27.67;18.20;;;9.90;99.90;;;;;;5050308;28;20256;-78
2022/12/24 05:34:23;;;;;;;27.87;18.07;;;9.90;99.90;;;;;;5091456;28;20258;-78
2022/12/24 05:36:49;;;;;;;27.83;19.47;;;9.90;99.90;;;;;;5071512;28;20653;-78
2022/12/24 05:39:18;;;;;;;30.83;18.57;;;9.90;99.90;;;;;;5070766;28;20333;-79
2022/12/24 05:41:45;;;;;;;29.83;18.57;;;9.90;99.90;;;;;;5058915;28;20668;-79
2022/12/24 05:44:14;;;;;;;26.40;18.17;;;9.90;99.90;;;;;;5078406;28;20282;-78
2022/12/24 05:46:41;;;;;;;27.27;18.43;;;9.90;99.90;;;;;;5078560;28;20606;-78
2022/12/24 05:49:08;;;;;;;25.90;17.23;;;9.90;99.90;;;;;;5075995;28;20208;-78
2022/12/24 05:51:36;;;;;;;27.23;18.50;;;10.00;99.90;;;;;;5065668;28;20233;-78
2022/12/24 05:54:02;;;;;;;27.60;18.80;;;10.00;99.90;;;;;;5085307;28;20244;-78
2022/12/24 05:56:31;;;;;;;30.60;18.60;;;10.00;99.90;;;;;;5078829;28;20187;-78
2022/12/24 05:58:57;;;;;;;30.23;17.33;;;10.10;99.90;;;;;;5070039;28;20233;-78
2022/12/24 06:01:24;;;;;;;25.47;17.97;;;10.10;99.90;;;;;;5074347;28;20183;-78
2022/12/24 06:03:53;;;;;;;26.83;17.03;;;10.20;99.90;;;;;;5055296;28;20186;-78
2022/12/24 06:06:27;;;;;;;26.73;17.83;;;10.30;99.90;;;;;;5050477;28;20560;-78
2022/12/24 06:08:55;;;;;;;27.07;17.53;;;10.40;99.90;;;;;;5055090;28;20559;-78
2022/12/24 06:11:26;;;;;;;28.40;17.90;;;10.50;99.90;;;;;;5075491;28;20221;-78
2022/12/24 06:13:53;;;;;;;31.93;18.87;;;10.50;99.90;;;;;;5069933;28;20191;-78
2022/12/24 06:16:22;;;;;;;36.83;18.30;;;10.60;99.90;;;;;;5059439;28;20187;-78
2022/12/24 06:18:50;;;;;;;27.20;18.50;;;10.70;99.90;;;;;;5066268;28;20265;-78
2022/12/24 06:21:18;;;;;;;31.90;18.83;;;10.80;99.90;;;;;;5075190;28;20201;-78
2022/12/24 06:23:45;;;;;;;25.87;18.10;;;10.90;99.90;;;;;;5068328;28;20514;-79
2022/12/24 06:26:19;;;;;;;35.20;18.67;;;11.10;99.90;;;;;;5062115;28;20525;-78
2022/12/24 06:28:49;;;;;;;31.67;17.87;;;11.10;99.90;;;;;;5050100;28;20194;-78
2022/12/24 06:31:20;;;;;;;35.73;18.60;;;11.20;99.90;;;;;;5074658;28;20285;-79
2022/12/24 06:33:47;;;;;;;29.97;18.57;;;11.30;99.90;;;;;;5075429;28;20741;-78
2022/12/24 06:36:23;;;;;;;30.90;18.97;;;11.40;99.90;;;;;;5066042;28;20200;-79
2022/12/24 06:38:52;;;;;;;31.23;18.33;;;11.40;99.90;;;;;;5065695;28;20213;-78
2022/12/24 06:41:20;;;;;;;29.10;18.13;;;11.40;99.90;;;;;;5081273;28;20200;-78
2022/12/24 06:43:49;;;;;;;29.23;18.37;;;11.40;99.90;;;;;;5071221;28;20194;-78
2022/12/24 06:46:18;;;;;;;31.60;17.80;;;11.40;99.90;;;;;;5065958;28;20191;-79
2022/12/24 06:48:46;;;;;;;30.47;17.67;;;11.40;99.90;;;;;;5083083;28;20266;-79
2022/12/24 06:51:15;;;;;;;28.50;18.60;;;11.50;99.90;;;;;;5075145;28;20218;-79
2022/12/24 06:53:42;;;;;;;27.60;18.83;;;11.50;99.90;;;;;;5098682;28;20186;-79
2022/12/24 06:56:12;;;;;;;28.67;18.67;;;11.60;99.90;;;;;;5059672;28;20206;-79
2022/12/24 06:58:40;;;;;;;32.20;16.90;;;11.60;99.90;;;;;;5054517;28;20187;-79
2022/12/24 07:01:11;;;;;;;27.50;17.63;;;11.70;99.90;;;;;;5048849;28;20382;-78
2022/12/24 07:03:38;;;;;;;32.17;18.70;;;11.70;99.90;;;;;;5059058;28;20394;-79
2022/12/24 07:06:05;;;;;;;24.33;17.37;;;11.70;99.90;;;;;;5065596;28;20207;-79
2022/12/24 07:08:34;;;;;;;26.80;17.30;;;11.80;99.90;;;;;;5066931;28;20197;-79
2022/12/24 07:11:02;;;;;;;24.50;16.10;;;11.80;99.90;;;;;;5065375;28;20670;-79
2022/12/24 07:13:28;;;;;;;24.50;16.67;;;11.90;99.90;;;;;;5066837;28;20175;-79
2022/12/24 07:16:01;;;;;;;26.93;17.27;;;11.90;99.90;;;;;;5076822;28;20186;-79
2022/12/24 07:18:28;;;;;;;22.53;16.60;;;11.90;99.90;;;;;;5054240;28;20186;-79
2022/12/24 07:20:56;;;;;;;24.43;16.80;;;12.00;99.90;;;;;;5053800;28;20190;-78
2022/12/24 07:23:23;;;;;;;23.30;17.17;;;12.00;99.90;;;;;;5061663;28;20218;-79
2022/12/24 07:25:49;;;;;;;23.57;17.07;;;12.00;99.90;;;;;;5067794;28;20195;-79
2022/12/24 07:28:15;;;;;;;29.77;16.97;;;12.00;99.90;;;;;;5064709;28;20593;-79
2022/12/24 07:30:42;;;;;;;21.37;16.27;;;12.10;99.90;;;;;;5061279;28;20298;-79
2022/12/24 07:33:08;;;;;;;23.17;16.53;;;12.10;99.90;;;;;;5067366;28;20314;-79
2022/12/24 07:35:35;;;;;;;23.37;17.07;;;12.20;99.90;;;;;;5068040;28;20195;-78
2022/12/24 07:38:02;;;;;;;22.60;16.63;;;12.20;99.90;;;;;;5065360;28;20187;-79
2022/12/24 07:40:29;;;;;;;22.17;17.30;;;12.20;99.90;;;;;;5081980;28;20214;-79
2022/12/24 07:42:55;;;;;;;26.33;18.30;;;12.20;99.90;;;;;;5066772;28;20191;-79
2022/12/24 07:45:22;;;;;;;23.40;17.77;;;12.30;99.90;;;;;;5043757;28;20243;-79
2022/12/24 07:47:49;;;;;;;22.23;16.83;;;12.30;99.90;;;;;;5061446;28;20218;-79
2022/12/24 07:50:16;;;;;;;29.60;18.27;;;12.40;99.90;;;;;;5065509;28;20307;-79
2022/12/24 07:52:42;;;;;;;26.70;18.07;;;12.50;99.90;;;;;;5056308;28;20241;-79
2022/12/24 07:55:09;;;;;;;25.80;18.63;;;12.50;99.90;;;;;;5070995;28;20556;-79
2022/12/24 07:57:35;;;;;;;24.73;16.17;;;12.50;99.90;;;;;;5044295;28;20187;-79
2022/12/24 08:00:02;;;;;;;22.33;16.37;;;12.40;99.90;;;;;;5072158;28;20229;-79
2022/12/24 08:02:28;;;;;;;22.93;16.30;;;12.50;99.90;;;;;;5063210;28;20195;-78
2022/12/24 08:04:55;;;;;;;24.00;16.47;;;12.50;99.90;;;;;;5072747;28;20187;-79
2022/12/24 08:07:21;;;;;;;22.97;16.57;;;12.50;99.90;;;;;;5074866;28;20210;-79
2022/12/24 08:09:47;;;;;;;24.13;16.60;;;12.60;99.90;;;;;;5071791;28;20328;-79
2022/12/24 08:12:14;;;;;;;19.00;16.23;;;12.60;99.90;;;;;;5059370;28;20643;-79
2022/12/24 08:14:40;;;;;;;21.03;16.53;;;12.60;99.90;;;;;;5060730;28;20190;-79
2022/12/24 08:17:06;;;;;;;19.27;15.77;;;12.60;99.90;;;;;;5063481;28;20243;-79
2022/12/24 08:19:33;;;;;;;20.10;16.53;;;12.60;99.90;;;;;;5089915;28;20197;-79
2022/12/24 08:22:00;;;;;;;21.13;16.67;;;12.70;99.90;;;;;;5071378;28;20183;-79
2022/12/24 08:24:26;;;;;;;27.57;16.63;;;12.70;99.90;;;;;;5067918;28;20244;-79
2022/12/24 08:26:52;;;;;;;23.00;16.10;;;12.70;99.90;;;;;;5057912;28;20239;-79
2022/12/24 08:29:19;;;;;;;20.53;16.33;;;12.70;99.90;;;;;;5070564;28;20187;-79
2022/12/24 08:31:45;;;;;;;23.33;16.50;;;12.70;99.90;;;;;;5070348;28;20194;-79
2022/12/24 08:34:13;;;;;;;28.20;17.03;;;12.70;99.90;;;;;;5078984;28;20894;-79
2022/12/24 08:36:41;;;;;;;20.53;16.37;;;12.70;99.90;;;;;;5072352;28;20671;-79
2022/12/24 08:39:09;;;;;;;27.07;16.53;;;12.70;99.90;;;;;;5069789;28;20179;-79
2022/12/24 08:41:35;;;;;;;29.43;18.07;;;12.80;99.90;;;;;;5060720;28;20268;-79
2022/12/24 08:44:02;;;;;;;25.47;17.30;;;12.80;99.90;;;;;;5067974;28;20636;-78
2022/12/24 08:46:28;;;;;;;24.00;16.93;;;12.80;99.90;;;;;;5066816;28;20186;-79
2022/12/24 08:48:54;;;;;;;20.10;15.67;;;12.90;99.90;;;;;;5086998;28;20182;-79
2022/12/24 08:51:21;;;;;;;20.30;16.53;;;13.00;99.90;;;;;;5086144;28;20213;-79
2022/12/24 08:53:47;;;;;;;21.53;17.13;;;13.00;99.90;;;;;;5064132;28;20661;-79
2022/12/24 08:56:14;;;;;;;21.90;17.00;;;13.00;99.90;;;;;;5066265;28;20187;-79
2022/12/24 08:58:40;;;;;;;22.13;16.90;;;12.90;99.90;;;;;;5069316;28;20183;-79
2022/12/24 09:01:17;;;;;;;23.00;16.73;;;13.00;99.90;;;;;;5053104;28;20206;-79
2022/12/24 09:03:44;;;;;;;22.93;16.00;;;13.00;99.90;;;;;;5087365;28;20190;-79
2022/12/24 09:06:12;;;;;;;22.90;16.70;;;13.00;99.90;;;;;;5066784;28;20199;-79
2022/12/24 09:08:38;;;;;;;19.37;15.80;;;13.00;99.90;;;;;;5063861;28;20206;-79
2022/12/24 09:11:12;;;;;;;23.80;16.40;;;13.00;99.90;;;;;;5060536;28;20215;-78
2022/12/24 09:13:39;;;;;;;21.90;16.17;;;13.10;99.90;;;;;;5055930;28;20199;-79
2022/12/24 09:16:06;;;;;;;22.07;16.77;;;13.10;99.90;;;;;;5056756;28;20191;-79
2022/12/24 09:18:33;;;;;;;21.63;15.60;;;13.20;99.90;;;;;;5069437;28;20191;-79
2022/12/24 09:21:13;;;;;;;21.70;16.03;;;13.20;99.90;;;;;;5078434;28;20199;-78
2022/12/24 09:23:42;;;;;;;24.70;15.83;;;13.30;99.90;;;;;;5060935;28;20202;-79
2022/12/24 09:26:20;;;;;;;22.13;16.07;;;13.40;99.90;;;;;;5071003;28;20191;-79
2022/12/24 09:28:47;;;;;;;18.87;14.50;;;13.40;99.90;;;;;;5057962;28;20199;-79
2022/12/24 09:31:14;;;;;;;17.07;13.50;;;13.50;99.90;;;;;;5051937;28;20208;-79
2022/12/24 09:33:43;;;;;;;15.77;13.10;;;13.50;99.90;;;;;;5056009;28;20233;-79
2022/12/24 09:36:10;;;;;;;15.33;13.03;;;13.50;99.90;;;;;;5051248;28;20199;-79
2022/12/24 09:38:39;;;;;;;19.40;14.07;;;13.50;99.90;;;;;;5068569;28;20191;-79
2022/12/24 09:41:37;;;;;;;15.87;12.90;;;13.60;99.90;;;;;;5085318;28;20201;-79
2022/12/24 09:44:26;;;;;;;16.20;12.57;;;13.60;99.90;;;;;;5024971;28;20223;-79
2022/12/24 09:46:54;;;;;;;15.03;13.00;;;13.70;99.90;;;;;;5049575;28;20190;-79
2022/12/24 09:49:29;;;;;;;20.13;13.70;;;13.80;99.90;;;;;;5051022;28;20218;-79
2022/12/24 09:52:09;;;;;;;20.30;13.57;;;13.70;99.90;;;;;;5068774;28;20533;-79
2022/12/24 09:54:48;;;;;;;16.83;13.93;;;13.70;99.90;;;;;;5070007;28;20361;-79
2022/12/24 09:57:31;;;;;;;17.17;13.47;;;13.70;99.90;;;;;;5064155;28;20182;-79
2022/12/24 09:59:57;;;;;;;18.67;14.40;;;13.70;99.90;;;;;;5063930;28;20225;-79
2022/12/24 10:02:24;;;;;;;21.80;13.80;;;13.70;99.90;;;;;;5079536;28;20187;-79
2022/12/24 10:04:50;;;;;;;19.13;13.77;;;13.80;99.90;;;;;;5080517;28;20284;-79
2022/12/24 10:07:54;;;;;;;16.50;14.27;;;13.80;99.90;;;;;;5074103;28;20218;-79
2022/12/24 10:10:54;;;;;;;17.93;13.50;;;13.80;99.90;;;;;;5065364;28;20226;-79
2022/12/24 10:14:03;;;;;;;17.23;13.93;;;13.80;99.90;;;;;;5057764;28;20262;-79
2022/12/24 10:17:25;;;;;;;16.53;13.97;;;13.80;99.90;;;;;;5050532;28;20209;-79
2022/12/24 10:20:24;;;;;;;18.60;13.67;;;13.80;99.90;;;;;;5061454;28;20290;-79
2022/12/24 10:23:04;;;;;;;20.57;14.43;;;13.80;99.90;;;;;;5060976;28;20194;-79
2022/12/24 10:26:06;;;;;;;20.37;13.83;;;13.80;99.90;;;;;;5063376;28;20737;-79
2022/12/24 10:29:33;;;;;;;21.40;14.83;;;13.80;99.90;;;;;;5052025;28;20231;-79
2022/12/24 10:32:24;;;;;;;18.00;14.60;;;13.80;99.90;;;;;;5026787;28;20665;-79
2022/12/24 10:35:14;;;;;;;20.53;14.33;;;13.80;99.90;;;;;;5005239;28;20218;-79
2022/12/24 10:37:46;;;;;;;21.63;16.07;;;13.80;99.90;;;;;;5056074;28;20210;-78
2022/12/24 10:40:45;;;;;;;20.73;15.60;;;13.90;99.90;;;;;;5062922;28;20187;-79
2022/12/24 10:43:20;;;;;;;21.87;15.60;;;13.90;99.90;;;;;;5079090;28;20210;-79
2022/12/24 10:45:57;;;;;;;22.37;16.27;;;13.90;99.90;;;;;;5043379;28;20274;-79
2022/12/24 10:48:48;;;;;;;18.67;15.80;;;14.00;99.90;;;;;;5078615;28;20202;-78
2022/12/24 10:51:30;;;;;;;23.60;16.70;;;14.00;99.90;;;;;;5073068;28;20218;-79
2022/12/24 10:54:07;;;;;;;20.07;15.67;;;14.00;99.90;;;;;;5060208;28;20814;-79
2022/12/24 10:56:49;;;;;;;23.63;16.87;;;14.00;99.90;;;;;;5055911;28;20182;-79
2022/12/24 10:59:51;;;;;;;24.93;16.20;;;14.10;99.90;;;;;;5067889;28;20187;-79
2022/12/24 11:02:36;;;;;;;21.30;16.50;;;14.10;99.90;;;;;;5086017;28;20218;-79
2022/12/24 11:05:25;;;;;;;18.90;15.47;;;14.10;99.90;;;;;;5073077;28;20199;-79
2022/12/24 11:08:03;;;;;;;20.33;16.10;;;14.10;99.90;;;;;;5069592;28;20183;-79
2022/12/24 11:10:31;;;;;;;26.37;16.00;;;14.20;99.90;;;;;;5064656;28;20218;-79
2022/12/24 11:12:58;;;;;;;26.43;16.20;;;14.20;99.90;;;;;;5061815;28;20182;-79
2022/12/24 11:15:34;;;;;;;26.67;15.67;;;14.20;99.90;;;;;;5051047;28;20282;-78
2022/12/24 11:18:11;;;;;;;21.27;15.60;;;14.20;99.90;;;;;;5062404;28;20222;-79
2022/12/24 11:20:39;;;;;;;24.13;16.60;;;14.10;99.90;;;;;;5064323;28;20194;-79
2022/12/24 11:23:13;;;;;;;20.47;15.60;;;14.10;99.90;;;;;;5067277;28;20217;-79
2022/12/24 11:25:47;;;;;;;24.80;15.77;;;14.10;99.90;;;;;;5038066;28;20823;-79
2022/12/24 11:28:28;;;;;;;20.53;15.30;;;14.10;99.90;;;;;;5068186;28;20202;-79
2022/12/24 11:31:03;;;;;;;19.43;15.63;;;14.10;99.90;;;;;;5047857;28;20211;-79
2022/12/24 11:33:44;;;;;;;17.57;14.47;;;14.00;99.90;;;;;;5069178;28;20652;-79
2022/12/24 11:36:12;;;;;;;22.47;16.17;;;14.00;99.90;;;;;;5071973;28;20187;-79
2022/12/24 11:38:39;;;;;;;18.90;15.23;;;14.00;99.90;;;;;;5053586;28;20187;-79
2022/12/24 11:41:12;;;;;;;19.10;15.03;;;14.00;99.90;;;;;;5070645;28;20202;-79
2022/12/24 11:43:49;;;;;;;18.53;15.30;;;14.00;99.90;;;;;;5078647;28;20195;-78
2022/12/24 11:46:27;;;;;;;19.60;15.63;;;14.00;99.90;;;;;;5051829;28;20238;-79
2022/12/24 11:49:31;;;;;;;21.83;15.93;;;14.10;99.90;;;;;;5061260;28;20186;-79
2022/12/24 11:52:01;;;;;;;22.17;17.27;;;14.10;99.90;;;;;;5076759;28;20543;-79
2022/12/24 11:54:35;;;;;;;25.13;17.57;;;14.10;99.90;;;;;;5064953;28;20186;-79
2022/12/24 11:57:04;;;;;;;21.83;17.13;;;14.20;99.90;;;;;;5088080;28;20186;-79
2022/12/24 11:59:46;;;;;;;22.27;16.83;;;14.30;99.90;;;;;;5054197;28;20172;-79
2022/12/24 12:02:32;;;;;;;21.63;16.93;;;14.50;99.90;;;;;;5063702;28;20742;-79
2022/12/24 12:05:27;;;;;;;18.63;14.83;;;14.60;99.90;;;;;;5086808;28;20675;-79
2022/12/24 12:08:07;;;;;;;20.43;15.73;;;14.60;99.90;;;;;;5080466;28;20186;-79
2022/12/24 12:10:40;;;;;;;18.63;16.40;;;14.60;99.90;;;;;;5064716;28;20284;-79
2022/12/24 12:13:16;;;;;;;21.67;15.77;;;14.60;99.90;;;;;;5047320;28;20183;-79
2022/12/24 12:16:10;;;;;;;23.30;16.53;;;14.60;99.90;;;;;;5066182;28;20190;-80
2022/12/24 12:18:41;;;;;;;22.13;15.93;;;14.60;99.90;;;;;;5065772;28;20276;-79
2022/12/24 12:21:39;;;;;;;20.03;16.40;;;14.60;99.90;;;;;;5068020;28;20681;-79
2022/12/24 12:24:22;;;;;;;21.80;17.57;;;14.50;99.90;;;;;;5071451;28;20211;-79
2022/12/24 12:27:00;;;;;;;21.80;16.60;;;14.40;99.90;;;;;;5075994;28;20218;-79
2022/12/24 12:29:54;;;;;;;21.83;17.47;;;14.30;99.90;;;;;;5064812;28;20237;-79
2022/12/24 12:32:59;;;;;;;26.70;18.07;;;14.30;99.90;;;;;;5062062;28;20191;-79
2022/12/24 12:35:42;;;;;;;26.07;19.17;;;14.20;99.90;;;;;;5070372;28;20197;-79
2022/12/24 12:38:12;;;;;;;24.50;18.33;;;14.10;99.90;;;;;;5051546;28;20221;-79
2022/12/24 12:41:12;;;;;;;26.13;19.40;;;14.10;99.90;;;;;;5047404;28;20247;-79
2022/12/24 12:44:40;;;;;;;23.60;19.10;;;14.10;99.90;;;;;;5061524;28;20186;-79
2022/12/24 12:47:25;;;;;;;29.63;21.13;;;14.00;99.90;;;;;;5043409;28;20293;-79
2022/12/24 12:50:34;;;;;;;25.30;20.17;;;14.00;99.90;;;;;;5097336;28;20267;-79
2022/12/24 12:53:29;;;;;;;26.20;19.70;;;14.00;99.90;;;;;;5078790;28;20279;-79
2022/12/24 12:56:36;;;;;;;25.80;19.27;;;14.00;99.90;;;;;;5048022;28;20183;-79
2022/12/24 12:59:27;;;;;;;27.60;18.83;;;14.00;99.90;;;;;;5044890;28;20248;-79
2022/12/24 13:02:40;;;;;;;25.30;19.23;;;14.10;99.90;;;;;;5065194;28;20191;-79
2022/12/24 13:06:07;;;;;;;25.73;19.07;;;14.10;99.90;;;;;;5070873;28;20182;-79
2022/12/24 13:08:54;;;;;;;27.87;19.60;;;14.10;99.90;;;;;;5063693;28;20207;-79
2022/12/24 13:11:39;;;;;;;25.07;19.80;;;14.10;99.90;;;;;;5085082;28;20206;-79